sensor_id;sensor_type;location;lat;lon;timestamp;P1;durP1;ratioP1;P2;durP2;ratioP2
72156;SDS011;60035;52.122;5.406;2023-07-08T00:00:51;6.53;;;2.83;;
72156;SDS011;60035;52.122;5.406;2023-07-08T00:03:18;6.93;;;2.75;;
72156;SDS011;60035;52.122;5.406;2023-07-08T00:05:46;7.30;;;2.80;;
72156;SDS011;60035;52.122;5.406;2023-07-08T00:08:22;7.70;;;2.83;;
72156;SDS011;60035;52.122;5.406;2023-07-08T00:10:48;6.97;;;3.10;;
72156;SDS011;60035;52.122;5.406;2023-07-08T00:13:15;8.93;;;2.75;;
72156;SDS011;60035;52.122;5.406;2023-07-08T00:15:41;8.40;;;2.92;;
72156;SDS011;60035;52.122;5.406;2023-07-08T00:18:10;6.53;;;2.70;;
72156;SDS011;60035;52.122;5.406;2023-07-08T00:20:39;9.13;;;2.75;;
72156;SDS011;60035;52.122;5.406;2023-07-08T00:23:11;7.78;;;2.78;;
72156;SDS011;60035;52.122;5.406;2023-07-08T00:25:38;8.13;;;2.58;;
72156;SDS011;60035;52.122;5.406;2023-07-08T00:28:15;6.10;;;2.53;;
72156;SDS011;60035;52.122;5.406;2023-07-08T00:30:47;11.25;;;3.08;;
72156;SDS011;60035;52.122;5.406;2023-07-08T00:33:14;7.85;;;2.88;;
72156;SDS011;60035;52.122;5.406;2023-07-08T00:35:43;7.20;;;2.85;;
72156;SDS011;60035;52.122;5.406;2023-07-08T00:38:12;6.22;;;2.90;;
72156;SDS011;60035;52.122;5.406;2023-07-08T00:43:29;8.90;;;3.13;;
72156;SDS011;60035;52.122;5.406;2023-07-08T00:46:13;6.72;;;2.40;;
72156;SDS011;60035;52.122;5.406;2023-07-08T00:48:50;6.25;;;2.70;;
72156;SDS011;60035;52.122;5.406;2023-07-08T00:51:19;6.15;;;2.53;;
72156;SDS011;60035;52.122;5.406;2023-07-08T00:53:47;6.50;;;2.45;;
72156;SDS011;60035;52.122;5.406;2023-07-08T00:58:55;6.85;;;2.83;;
72156;SDS011;60035;52.122;5.406;2023-07-08T01:01:25;8.52;;;2.90;;
72156;SDS011;60035;52.122;5.406;2023-07-08T01:03:56;6.85;;;2.78;;
72156;SDS011;60035;52.122;5.406;2023-07-08T01:06:28;7.28;;;2.83;;
72156;SDS011;60035;52.122;5.406;2023-07-08T01:09:02;7.13;;;2.78;;
72156;SDS011;60035;52.122;5.406;2023-07-08T01:11:32;6.28;;;2.95;;
72156;SDS011;60035;52.122;5.406;2023-07-08T01:14:02;6.20;;;2.78;;
72156;SDS011;60035;52.122;5.406;2023-07-08T01:16:31;5.75;;;2.50;;
72156;SDS011;60035;52.122;5.406;2023-07-08T01:19:00;6.47;;;2.95;;
72156;SDS011;60035;52.122;5.406;2023-07-08T01:24:06;6.22;;;3.03;;
72156;SDS011;60035;52.122;5.406;2023-07-08T01:26:36;6.40;;;2.97;;
72156;SDS011;60035;52.122;5.406;2023-07-08T01:31:33;5.88;;;2.70;;
72156;SDS011;60035;52.122;5.406;2023-07-08T01:34:01;6.53;;;2.65;;
72156;SDS011;60035;52.122;5.406;2023-07-08T01:36:31;7.45;;;3.17;;
72156;SDS011;60035;52.122;5.406;2023-07-08T01:39:03;8.05;;;3.20;;
72156;SDS011;60035;52.122;5.406;2023-07-08T01:41:29;7.80;;;2.78;;
72156;SDS011;60035;52.122;5.406;2023-07-08T01:43:56;7.38;;;2.90;;
72156;SDS011;60035;52.122;5.406;2023-07-08T01:46:23;7.90;;;2.42;;
72156;SDS011;60035;52.122;5.406;2023-07-08T01:48:52;6.50;;;2.92;;
72156;SDS011;60035;52.122;5.406;2023-07-08T01:51:24;8.57;;;3.00;;
72156;SDS011;60035;52.122;5.406;2023-07-08T01:53:52;7.72;;;2.97;;
72156;SDS011;60035;52.122;5.406;2023-07-08T01:56:18;7.60;;;2.88;;
72156;SDS011;60035;52.122;5.406;2023-07-08T01:58:45;8.10;;;3.00;;
72156;SDS011;60035;52.122;5.406;2023-07-08T02:01:11;9.32;;;3.03;;
72156;SDS011;60035;52.122;5.406;2023-07-08T02:03:38;7.25;;;2.88;;
72156;SDS011;60035;52.122;5.406;2023-07-08T02:06:07;6.57;;;2.65;;
72156;SDS011;60035;52.122;5.406;2023-07-08T02:08:34;10.00;;;3.05;;
72156;SDS011;60035;52.122;5.406;2023-07-08T02:11:01;8.30;;;3.20;;
72156;SDS011;60035;52.122;5.406;2023-07-08T02:13:28;6.68;;;3.17;;
72156;SDS011;60035;52.122;5.406;2023-07-08T02:15:54;12.90;;;3.40;;
72156;SDS011;60035;52.122;5.406;2023-07-08T02:18:21;6.35;;;2.70;;
72156;SDS011;60035;52.122;5.406;2023-07-08T02:20:49;6.72;;;2.88;;
72156;SDS011;60035;52.122;5.406;2023-07-08T02:23:16;6.55;;;2.75;;
72156;SDS011;60035;52.122;5.406;2023-07-08T02:25:49;7.10;;;3.05;;
72156;SDS011;60035;52.122;5.406;2023-07-08T02:28:20;6.95;;;3.13;;
72156;SDS011;60035;52.122;5.406;2023-07-08T02:30:46;7.40;;;3.00;;
72156;SDS011;60035;52.122;5.406;2023-07-08T02:33:13;8.90;;;3.50;;
72156;SDS011;60035;52.122;5.406;2023-07-08T02:35:43;5.60;;;2.55;;
72156;SDS011;60035;52.122;5.406;2023-07-08T02:38:11;7.10;;;3.25;;
72156;SDS011;60035;52.122;5.406;2023-07-08T02:40:37;7.10;;;3.00;;
72156;SDS011;60035;52.122;5.406;2023-07-08T02:43:04;8.70;;;3.22;;
72156;SDS011;60035;52.122;5.406;2023-07-08T02:45:30;7.28;;;3.33;;
72156;SDS011;60035;52.122;5.406;2023-07-08T02:47:57;6.35;;;3.13;;
72156;SDS011;60035;52.122;5.406;2023-07-08T02:50:23;9.00;;;3.63;;
72156;SDS011;60035;52.122;5.406;2023-07-08T02:52:51;7.00;;;3.10;;
72156;SDS011;60035;52.122;5.406;2023-07-08T02:55:18;7.85;;;3.20;;
72156;SDS011;60035;52.122;5.406;2023-07-08T02:57:44;7.00;;;3.13;;
72156;SDS011;60035;52.122;5.406;2023-07-08T03:00:11;7.70;;;3.83;;
72156;SDS011;60035;52.122;5.406;2023-07-08T03:02:39;6.47;;;2.83;;
72156;SDS011;60035;52.122;5.406;2023-07-08T03:05:06;7.60;;;3.40;;
72156;SDS011;60035;52.122;5.406;2023-07-08T03:07:32;7.05;;;3.17;;
72156;SDS011;60035;52.122;5.406;2023-07-08T03:09:59;7.53;;;3.28;;
72156;SDS011;60035;52.122;5.406;2023-07-08T03:12:26;8.32;;;3.38;;
72156;SDS011;60035;52.122;5.406;2023-07-08T03:14:52;7.93;;;3.35;;
72156;SDS011;60035;52.122;5.406;2023-07-08T03:17:19;6.90;;;3.10;;
72156;SDS011;60035;52.122;5.406;2023-07-08T03:19:46;12.77;;;3.60;;
72156;SDS011;60035;52.122;5.406;2023-07-08T03:22:12;7.80;;;2.95;;
72156;SDS011;60035;52.122;5.406;2023-07-08T03:24:39;6.85;;;3.05;;
72156;SDS011;60035;52.122;5.406;2023-07-08T03:27:15;7.07;;;3.10;;
72156;SDS011;60035;52.122;5.406;2023-07-08T03:29:42;8.10;;;3.85;;
72156;SDS011;60035;52.122;5.406;2023-07-08T03:32:12;8.18;;;3.40;;
72156;SDS011;60035;52.122;5.406;2023-07-08T03:34:39;7.45;;;3.30;;
72156;SDS011;60035;52.122;5.406;2023-07-08T03:37:05;8.02;;;3.42;;
72156;SDS011;60035;52.122;5.406;2023-07-08T03:39:32;9.43;;;3.53;;
72156;SDS011;60035;52.122;5.406;2023-07-08T03:41:59;8.23;;;3.20;;
72156;SDS011;60035;52.122;5.406;2023-07-08T03:44:25;7.40;;;3.60;;
72156;SDS011;60035;52.122;5.406;2023-07-08T03:46:52;6.47;;;3.03;;
72156;SDS011;60035;52.122;5.406;2023-07-08T03:49:20;6.38;;;3.17;;
72156;SDS011;60035;52.122;5.406;2023-07-08T03:51:50;10.63;;;3.70;;
72156;SDS011;60035;52.122;5.406;2023-07-08T03:54:20;8.77;;;3.40;;
72156;SDS011;60035;52.122;5.406;2023-07-08T03:56:49;7.63;;;3.53;;
72156;SDS011;60035;52.122;5.406;2023-07-08T03:59:15;7.45;;;3.10;;
72156;SDS011;60035;52.122;5.406;2023-07-08T04:01:42;7.65;;;3.22;;
72156;SDS011;60035;52.122;5.406;2023-07-08T04:04:10;9.40;;;3.22;;
72156;SDS011;60035;52.122;5.406;2023-07-08T04:06:39;7.00;;;3.30;;
72156;SDS011;60035;52.122;5.406;2023-07-08T04:09:05;8.50;;;3.80;;
72156;SDS011;60035;52.122;5.406;2023-07-08T04:11:33;7.15;;;3.67;;
72156;SDS011;60035;52.122;5.406;2023-07-08T04:13:59;8.75;;;3.95;;
72156;SDS011;60035;52.122;5.406;2023-07-08T04:16:27;10.48;;;3.75;;
72156;SDS011;60035;52.122;5.406;2023-07-08T04:18:56;8.48;;;3.75;;
72156;SDS011;60035;52.122;5.406;2023-07-08T04:21:23;7.25;;;3.53;;
72156;SDS011;60035;52.122;5.406;2023-07-08T04:23:53;6.60;;;3.47;;
72156;SDS011;60035;52.122;5.406;2023-07-08T04:26:20;8.35;;;3.70;;
72156;SDS011;60035;52.122;5.406;2023-07-08T04:28:46;9.15;;;3.42;;
72156;SDS011;60035;52.122;5.406;2023-07-08T04:31:13;8.02;;;3.83;;
72156;SDS011;60035;52.122;5.406;2023-07-08T04:33:40;9.27;;;3.63;;
72156;SDS011;60035;52.122;5.406;2023-07-08T04:36:13;9.25;;;3.60;;
72156;SDS011;60035;52.122;5.406;2023-07-08T04:38:40;10.25;;;3.85;;
72156;SDS011;60035;52.122;5.406;2023-07-08T04:41:08;7.50;;;3.78;;
72156;SDS011;60035;52.122;5.406;2023-07-08T04:43:34;9.02;;;3.83;;
72156;SDS011;60035;52.122;5.406;2023-07-08T04:46:01;9.13;;;3.45;;
72156;SDS011;60035;52.122;5.406;2023-07-08T04:48:28;7.60;;;3.38;;
72156;SDS011;60035;52.122;5.406;2023-07-08T04:50:54;7.88;;;3.60;;
72156;SDS011;60035;52.122;5.406;2023-07-08T04:53:21;8.98;;;3.65;;
72156;SDS011;60035;52.122;5.406;2023-07-08T04:55:51;8.35;;;3.65;;
72156;SDS011;60035;52.122;5.406;2023-07-08T04:58:20;8.63;;;3.85;;
72156;SDS011;60035;52.122;5.406;2023-07-08T05:00:46;7.85;;;3.33;;
72156;SDS011;60035;52.122;5.406;2023-07-08T05:03:13;7.80;;;3.90;;
72156;SDS011;60035;52.122;5.406;2023-07-08T05:05:40;8.93;;;3.83;;
72156;SDS011;60035;52.122;5.406;2023-07-08T05:08:07;7.40;;;3.30;;
72156;SDS011;60035;52.122;5.406;2023-07-08T05:10:34;8.30;;;3.47;;
72156;SDS011;60035;52.122;5.406;2023-07-08T05:13:01;8.98;;;3.58;;
72156;SDS011;60035;52.122;5.406;2023-07-08T05:15:27;9.27;;;3.90;;
72156;SDS011;60035;52.122;5.406;2023-07-08T05:17:54;7.13;;;3.53;;
72156;SDS011;60035;52.122;5.406;2023-07-08T05:20:20;9.50;;;3.80;;
72156;SDS011;60035;52.122;5.406;2023-07-08T05:22:48;7.05;;;3.33;;
72156;SDS011;60035;52.122;5.406;2023-07-08T05:25:15;9.82;;;3.13;;
72156;SDS011;60035;52.122;5.406;2023-07-08T05:27:44;8.82;;;3.70;;
72156;SDS011;60035;52.122;5.406;2023-07-08T05:30:12;9.35;;;3.72;;
72156;SDS011;60035;52.122;5.406;2023-07-08T05:32:43;7.47;;;3.40;;
72156;SDS011;60035;52.122;5.406;2023-07-08T05:35:10;9.38;;;3.67;;
72156;SDS011;60035;52.122;5.406;2023-07-08T05:37:37;7.22;;;3.45;;
72156;SDS011;60035;52.122;5.406;2023-07-08T05:40:06;9.02;;;3.58;;
72156;SDS011;60035;52.122;5.406;2023-07-08T05:42:34;9.52;;;3.92;;
72156;SDS011;60035;52.122;5.406;2023-07-08T05:45:01;7.45;;;3.42;;
72156;SDS011;60035;52.122;5.406;2023-07-08T05:47:29;7.20;;;3.13;;
72156;SDS011;60035;52.122;5.406;2023-07-08T05:49:55;7.70;;;3.63;;
72156;SDS011;60035;52.122;5.406;2023-07-08T05:52:22;8.43;;;3.58;;
72156;SDS011;60035;52.122;5.406;2023-07-08T05:54:48;6.88;;;3.38;;
72156;SDS011;60035;52.122;5.406;2023-07-08T05:57:15;7.57;;;3.42;;
72156;SDS011;60035;52.122;5.406;2023-07-08T05:59:41;6.65;;;3.40;;
72156;SDS011;60035;52.122;5.406;2023-07-08T06:02:10;10.93;;;3.60;;
72156;SDS011;60035;52.122;5.406;2023-07-08T06:04:38;7.72;;;3.42;;
72156;SDS011;60035;52.122;5.406;2023-07-08T06:07:05;10.20;;;3.33;;
72156;SDS011;60035;52.122;5.406;2023-07-08T06:09:32;6.53;;;3.17;;
72156;SDS011;60035;52.122;5.406;2023-07-08T06:11:59;8.05;;;3.83;;
72156;SDS011;60035;52.122;5.406;2023-07-08T06:14:26;8.02;;;3.55;;
72156;SDS011;60035;52.122;5.406;2023-07-08T06:16:54;6.63;;;3.08;;
72156;SDS011;60035;52.122;5.406;2023-07-08T06:19:23;11.73;;;3.80;;
72156;SDS011;60035;52.122;5.406;2023-07-08T06:21:50;8.15;;;3.38;;
72156;SDS011;60035;52.122;5.406;2023-07-08T06:24:16;6.88;;;3.03;;
72156;SDS011;60035;52.122;5.406;2023-07-08T06:26:43;7.32;;;3.33;;
72156;SDS011;60035;52.122;5.406;2023-07-08T06:29:09;7.80;;;3.10;;
72156;SDS011;60035;52.122;5.406;2023-07-08T06:31:36;6.97;;;2.83;;
72156;SDS011;60035;52.122;5.406;2023-07-08T06:34:03;6.07;;;2.97;;
72156;SDS011;60035;52.122;5.406;2023-07-08T06:36:30;7.30;;;3.67;;
72156;SDS011;60035;52.122;5.406;2023-07-08T06:38:57;7.05;;;3.20;;
72156;SDS011;60035;52.122;5.406;2023-07-08T06:41:23;8.85;;;3.47;;
72156;SDS011;60035;52.122;5.406;2023-07-08T06:43:50;9.52;;;3.72;;
72156;SDS011;60035;52.122;5.406;2023-07-08T06:46:17;9.45;;;3.13;;
72156;SDS011;60035;52.122;5.406;2023-07-08T06:48:45;7.40;;;3.40;;
72156;SDS011;60035;52.122;5.406;2023-07-08T06:51:12;9.10;;;3.15;;
72156;SDS011;60035;52.122;5.406;2023-07-08T06:53:38;6.68;;;3.13;;
72156;SDS011;60035;52.122;5.406;2023-07-08T06:56:05;7.80;;;3.03;;
72156;SDS011;60035;52.122;5.406;2023-07-08T06:58:31;8.25;;;3.03;;
72156;SDS011;60035;52.122;5.406;2023-07-08T07:00:58;7.50;;;3.15;;
72156;SDS011;60035;52.122;5.406;2023-07-08T07:03:25;8.15;;;3.15;;
72156;SDS011;60035;52.122;5.406;2023-07-08T07:05:52;6.82;;;3.25;;
72156;SDS011;60035;52.122;5.406;2023-07-08T07:08:18;6.60;;;3.00;;
72156;SDS011;60035;52.122;5.406;2023-07-08T07:10:45;6.95;;;2.83;;
72156;SDS011;60035;52.122;5.406;2023-07-08T07:13:12;7.30;;;3.47;;
72156;SDS011;60035;52.122;5.406;2023-07-08T07:15:38;7.75;;;3.20;;
72156;SDS011;60035;52.122;5.406;2023-07-08T07:18:05;8.95;;;3.40;;
72156;SDS011;60035;52.122;5.406;2023-07-08T07:20:32;6.43;;;3.13;;
72156;SDS011;60035;52.122;5.406;2023-07-08T07:22:59;6.40;;;2.80;;
72156;SDS011;60035;52.122;5.406;2023-07-08T07:25:26;6.78;;;3.30;;
72156;SDS011;60035;52.122;5.406;2023-07-08T07:27:52;8.13;;;3.30;;
72156;SDS011;60035;52.122;5.406;2023-07-08T07:30:19;9.02;;;2.80;;
72156;SDS011;60035;52.122;5.406;2023-07-08T07:32:45;7.55;;;3.42;;
72156;SDS011;60035;52.122;5.406;2023-07-08T07:35:12;7.20;;;3.20;;
72156;SDS011;60035;52.122;5.406;2023-07-08T07:37:41;8.52;;;3.13;;
72156;SDS011;60035;52.122;5.406;2023-07-08T07:40:09;10.07;;;3.58;;
72156;SDS011;60035;52.122;5.406;2023-07-08T07:42:39;7.97;;;3.13;;
72156;SDS011;60035;52.122;5.406;2023-07-08T07:45:07;10.07;;;3.33;;
72156;SDS011;60035;52.122;5.406;2023-07-08T07:47:34;6.53;;;3.50;;
72156;SDS011;60035;52.122;5.406;2023-07-08T07:50:02;7.63;;;3.15;;
72156;SDS011;60035;52.122;5.406;2023-07-08T07:52:32;7.13;;;3.50;;
72156;SDS011;60035;52.122;5.406;2023-07-08T07:54:59;6.28;;;3.20;;
72156;SDS011;60035;52.122;5.406;2023-07-08T07:57:25;8.38;;;3.50;;
72156;SDS011;60035;52.122;5.406;2023-07-08T07:59:52;8.40;;;3.38;;
72156;SDS011;60035;52.122;5.406;2023-07-08T08:02:18;7.40;;;3.38;;
72156;SDS011;60035;52.122;5.406;2023-07-08T08:04:45;8.80;;;3.90;;
72156;SDS011;60035;52.122;5.406;2023-07-08T08:07:12;8.07;;;3.63;;
72156;SDS011;60035;52.122;5.406;2023-07-08T08:09:39;8.23;;;3.35;;
72156;SDS011;60035;52.122;5.406;2023-07-08T08:12:07;8.13;;;3.58;;
72156;SDS011;60035;52.122;5.406;2023-07-08T08:14:35;8.70;;;3.25;;
72156;SDS011;60035;52.122;5.406;2023-07-08T08:17:02;6.97;;;3.10;;
72156;SDS011;60035;52.122;5.406;2023-07-08T08:19:30;8.18;;;3.08;;
72156;SDS011;60035;52.122;5.406;2023-07-08T08:21:58;8.10;;;3.33;;
72156;SDS011;60035;52.122;5.406;2023-07-08T08:24:24;10.63;;;3.45;;
72156;SDS011;60035;52.122;5.406;2023-07-08T08:26:53;8.40;;;3.40;;
72156;SDS011;60035;52.122;5.406;2023-07-08T08:29:20;6.47;;;3.30;;
72156;SDS011;60035;52.122;5.406;2023-07-08T08:31:46;9.63;;;3.42;;
72156;SDS011;60035;52.122;5.406;2023-07-08T08:34:13;6.47;;;3.22;;
72156;SDS011;60035;52.122;5.406;2023-07-08T08:36:39;8.25;;;3.70;;
72156;SDS011;60035;52.122;5.406;2023-07-08T08:39:06;8.60;;;3.70;;
72156;SDS011;60035;52.122;5.406;2023-07-08T08:41:33;7.97;;;3.50;;
72156;SDS011;60035;52.122;5.406;2023-07-08T08:44:02;9.85;;;3.47;;
72156;SDS011;60035;52.122;5.406;2023-07-08T08:46:35;8.85;;;3.50;;
72156;SDS011;60035;52.122;5.406;2023-07-08T08:51:39;10.38;;;3.25;;
72156;SDS011;60035;52.122;5.406;2023-07-08T08:54:07;8.45;;;3.70;;
72156;SDS011;60035;52.122;5.406;2023-07-08T09:02:23;9.10;;;3.70;;
72156;SDS011;60035;52.122;5.406;2023-07-08T09:04:53;9.68;;;3.65;;
72156;SDS011;60035;52.122;5.406;2023-07-08T09:07:20;10.70;;;4.07;;
72156;SDS011;60035;52.122;5.406;2023-07-08T09:10:00;9.18;;;3.67;;
72156;SDS011;60035;52.122;5.406;2023-07-08T09:12:30;8.50;;;3.58;;
72156;SDS011;60035;52.122;5.406;2023-07-08T09:15:03;7.40;;;3.50;;
72156;SDS011;60035;52.122;5.406;2023-07-08T09:17:38;8.02;;;3.55;;
72156;SDS011;60035;52.122;5.406;2023-07-08T09:20:14;8.10;;;3.50;;
72156;SDS011;60035;52.122;5.406;2023-07-08T09:23:09;9.27;;;3.15;;
72156;SDS011;60035;52.122;5.406;2023-07-08T09:25:57;7.45;;;3.72;;
72156;SDS011;60035;52.122;5.406;2023-07-08T09:29:04;10.25;;;3.70;;
72156;SDS011;60035;52.122;5.406;2023-07-08T09:34:15;8.93;;;3.85;;
72156;SDS011;60035;52.122;5.406;2023-07-08T09:36:42;7.75;;;3.65;;
72156;SDS011;60035;52.122;5.406;2023-07-08T09:39:12;7.35;;;3.50;;
72156;SDS011;60035;52.122;5.406;2023-07-08T09:41:42;8.63;;;3.90;;
72156;SDS011;60035;52.122;5.406;2023-07-08T09:44:19;9.18;;;4.05;;
72156;SDS011;60035;52.122;5.406;2023-07-08T09:46:53;8.95;;;3.67;;
72156;SDS011;60035;52.122;5.406;2023-07-08T09:49:31;8.63;;;4.22;;
72156;SDS011;60035;52.122;5.406;2023-07-08T09:52:00;9.07;;;3.97;;
72156;SDS011;60035;52.122;5.406;2023-07-08T09:54:28;10.48;;;4.32;;
72156;SDS011;60035;52.122;5.406;2023-07-08T09:59:30;10.10;;;4.20;;
72156;SDS011;60035;52.122;5.406;2023-07-08T10:01:59;9.07;;;4.18;;
72156;SDS011;60035;52.122;5.406;2023-07-08T10:04:27;9.48;;;4.60;;
72156;SDS011;60035;52.122;5.406;2023-07-08T10:06:54;9.18;;;4.18;;
72156;SDS011;60035;52.122;5.406;2023-07-08T10:09:23;8.48;;;4.22;;
72156;SDS011;60035;52.122;5.406;2023-07-08T10:11:53;8.85;;;4.38;;
72156;SDS011;60035;52.122;5.406;2023-07-08T10:14:29;10.65;;;4.32;;
72156;SDS011;60035;52.122;5.406;2023-07-08T10:17:02;9.57;;;4.22;;
72156;SDS011;60035;52.122;5.406;2023-07-08T10:19:29;10.27;;;4.65;;
72156;SDS011;60035;52.122;5.406;2023-07-08T10:27:46;9.25;;;4.55;;
72156;SDS011;60035;52.122;5.406;2023-07-08T10:30:38;10.13;;;4.80;;
72156;SDS011;60035;52.122;5.406;2023-07-08T10:36:05;9.10;;;4.57;;
72156;SDS011;60035;52.122;5.406;2023-07-08T10:44:19;10.75;;;4.90;;
72156;SDS011;60035;52.122;5.406;2023-07-08T10:52:31;11.07;;;4.72;;
72156;SDS011;60035;52.122;5.406;2023-07-08T10:58:02;10.50;;;4.70;;
72156;SDS011;60035;52.122;5.406;2023-07-08T11:01:00;12.95;;;4.35;;
72156;SDS011;60035;52.122;5.406;2023-07-08T11:06:21;10.23;;;4.82;;
72156;SDS011;60035;52.122;5.406;2023-07-08T11:08:56;10.30;;;4.78;;
72156;SDS011;60035;52.122;5.406;2023-07-08T11:14:13;9.73;;;4.32;;
72156;SDS011;60035;52.122;5.406;2023-07-08T11:19:48;11.63;;;4.72;;
72156;SDS011;60035;52.122;5.406;2023-07-08T11:22:21;10.68;;;4.43;;
72156;SDS011;60035;52.122;5.406;2023-07-08T11:24:49;10.30;;;4.57;;
72156;SDS011;60035;52.122;5.406;2023-07-08T11:27:23;10.73;;;4.45;;
72156;SDS011;60035;52.122;5.406;2023-07-08T11:29:58;9.77;;;4.53;;
72156;SDS011;60035;52.122;5.406;2023-07-08T11:32:30;10.00;;;4.55;;
72156;SDS011;60035;52.122;5.406;2023-07-08T11:35:00;10.63;;;4.32;;
72156;SDS011;60035;52.122;5.406;2023-07-08T11:37:29;9.73;;;4.53;;
72156;SDS011;60035;52.122;5.406;2023-07-08T11:39:58;9.18;;;4.32;;
72156;SDS011;60035;52.122;5.406;2023-07-08T11:42:37;10.82;;;5.40;;
72156;SDS011;60035;52.122;5.406;2023-07-08T11:48:47;10.35;;;5.18;;
72156;SDS011;60035;52.122;5.406;2023-07-08T11:50:57;10.23;;;4.68;;
72156;SDS011;60035;52.122;5.406;2023-07-08T11:58:26;10.60;;;4.53;;
72156;SDS011;60035;52.122;5.406;2023-07-08T12:01:04;10.25;;;4.65;;
72156;SDS011;60035;52.122;5.406;2023-07-08T12:03:51;9.65;;;4.80;;
72156;SDS011;60035;52.122;5.406;2023-07-08T12:08:53;10.43;;;4.78;;
72156;SDS011;60035;52.122;5.406;2023-07-08T12:11:39;9.60;;;4.38;;
72156;SDS011;60035;52.122;5.406;2023-07-08T12:14:07;10.32;;;5.22;;
72156;SDS011;60035;52.122;5.406;2023-07-08T12:16:35;9.93;;;4.47;;
72156;SDS011;60035;52.122;5.406;2023-07-08T12:19:02;8.95;;;4.60;;
72156;SDS011;60035;52.122;5.406;2023-07-08T12:21:34;10.93;;;4.40;;
72156;SDS011;60035;52.122;5.406;2023-07-08T12:24:05;10.10;;;4.65;;
72156;SDS011;60035;52.122;5.406;2023-07-08T12:26:33;9.77;;;4.88;;
72156;SDS011;60035;52.122;5.406;2023-07-08T12:29:00;9.45;;;4.45;;
72156;SDS011;60035;52.122;5.406;2023-07-08T12:31:28;9.73;;;4.65;;
72156;SDS011;60035;52.122;5.406;2023-07-08T12:33:55;9.38;;;4.50;;
72156;SDS011;60035;52.122;5.406;2023-07-08T12:36:23;9.90;;;4.72;;
72156;SDS011;60035;52.122;5.406;2023-07-08T12:38:52;8.95;;;4.63;;
72156;SDS011;60035;52.122;5.406;2023-07-08T12:41:25;9.57;;;4.43;;
72156;SDS011;60035;52.122;5.406;2023-07-08T12:43:58;9.15;;;4.43;;
72156;SDS011;60035;52.122;5.406;2023-07-08T12:46:26;9.85;;;5.13;;
72156;SDS011;60035;52.122;5.406;2023-07-08T12:48:52;9.20;;;4.50;;
72156;SDS011;60035;52.122;5.406;2023-07-08T12:51:21;9.80;;;4.80;;
72156;SDS011;60035;52.122;5.406;2023-07-08T12:53:53;9.27;;;4.22;;
72156;SDS011;60035;52.122;5.406;2023-07-08T12:56:21;10.20;;;4.60;;
72156;SDS011;60035;52.122;5.406;2023-07-08T12:58:50;9.90;;;4.72;;
72156;SDS011;60035;52.122;5.406;2023-07-08T13:01:19;9.80;;;4.22;;
72156;SDS011;60035;52.122;5.406;2023-07-08T13:06:17;10.82;;;4.72;;
72156;SDS011;60035;52.122;5.406;2023-07-08T13:08:47;8.85;;;4.10;;
72156;SDS011;60035;52.122;5.406;2023-07-08T13:11:15;10.88;;;4.47;;
72156;SDS011;60035;52.122;5.406;2023-07-08T13:16:28;9.15;;;4.25;;
72156;SDS011;60035;52.122;5.406;2023-07-08T13:18:58;8.50;;;4.28;;
72156;SDS011;60035;52.122;5.406;2023-07-08T13:21:25;9.68;;;4.60;;
72156;SDS011;60035;52.122;5.406;2023-07-08T13:23:53;8.85;;;4.53;;
72156;SDS011;60035;52.122;5.406;2023-07-08T13:26:21;10.40;;;4.68;;
72156;SDS011;60035;52.122;5.406;2023-07-08T13:28:48;10.70;;;4.38;;
72156;SDS011;60035;52.122;5.406;2023-07-08T13:31:17;9.93;;;4.30;;
72156;SDS011;60035;52.122;5.406;2023-07-08T13:33:54;9.90;;;4.28;;
72156;SDS011;60035;52.122;5.406;2023-07-08T13:36:23;10.13;;;4.70;;
72156;SDS011;60035;52.122;5.406;2023-07-08T13:38:58;10.00;;;4.68;;
72156;SDS011;60035;52.122;5.406;2023-07-08T13:43:54;9.45;;;4.13;;
72156;SDS011;60035;52.122;5.406;2023-07-08T13:49:01;10.98;;;4.53;;
72156;SDS011;60035;52.122;5.406;2023-07-08T13:51:38;9.13;;;4.40;;
72156;SDS011;60035;52.122;5.406;2023-07-08T13:54:13;9.45;;;4.55;;
72156;SDS011;60035;52.122;5.406;2023-07-08T13:56:59;9.60;;;4.10;;
72156;SDS011;60035;52.122;5.406;2023-07-08T13:59:27;9.27;;;3.95;;
72156;SDS011;60035;52.122;5.406;2023-07-08T14:01:55;11.00;;;4.22;;
72156;SDS011;60035;52.122;5.406;2023-07-08T14:04:47;10.05;;;4.40;;
72156;SDS011;60035;52.122;5.406;2023-07-08T14:07:16;9.13;;;4.40;;
72156;SDS011;60035;52.122;5.406;2023-07-08T14:12:11;9.18;;;4.38;;
72156;SDS011;60035;52.122;5.406;2023-07-08T14:14:37;8.73;;;4.18;;
72156;SDS011;60035;52.122;5.406;2023-07-08T14:17:04;9.38;;;4.10;;
72156;SDS011;60035;52.122;5.406;2023-07-08T14:19:34;10.02;;;4.30;;
72156;SDS011;60035;52.122;5.406;2023-07-08T14:22:05;9.80;;;4.20;;
72156;SDS011;60035;52.122;5.406;2023-07-08T14:24:45;7.90;;;3.92;;
72156;SDS011;60035;52.122;5.406;2023-07-08T14:27:12;9.32;;;4.22;;
72156;SDS011;60035;52.122;5.406;2023-07-08T14:29:40;9.07;;;4.70;;
72156;SDS011;60035;52.122;5.406;2023-07-08T14:32:14;8.52;;;4.32;;
72156;SDS011;60035;52.122;5.406;2023-07-08T14:34:43;8.52;;;4.43;;
72156;SDS011;60035;52.122;5.406;2023-07-08T14:37:15;9.70;;;4.35;;
72156;SDS011;60035;52.122;5.406;2023-07-08T14:39:43;9.98;;;4.43;;
72156;SDS011;60035;52.122;5.406;2023-07-08T14:42:10;7.70;;;4.10;;
72156;SDS011;60035;52.122;5.406;2023-07-08T14:44:38;10.93;;;4.80;;
72156;SDS011;60035;52.122;5.406;2023-07-08T14:47:10;9.55;;;4.50;;
72156;SDS011;60035;52.122;5.406;2023-07-08T14:49:38;9.43;;;4.47;;
72156;SDS011;60035;52.122;5.406;2023-07-08T14:52:05;9.80;;;4.65;;
72156;SDS011;60035;52.122;5.406;2023-07-08T14:54:32;9.13;;;4.70;;
72156;SDS011;60035;52.122;5.406;2023-07-08T14:56:59;10.05;;;4.97;;
72156;SDS011;60035;52.122;5.406;2023-07-08T14:59:27;10.52;;;4.50;;
72156;SDS011;60035;52.122;5.406;2023-07-08T15:01:55;11.15;;;4.93;;
72156;SDS011;60035;52.122;5.406;2023-07-08T15:04:25;9.13;;;4.82;;
72156;SDS011;60035;52.122;5.406;2023-07-08T15:06:52;9.32;;;4.53;;
72156;SDS011;60035;52.122;5.406;2023-07-08T15:09:20;9.55;;;4.53;;
72156;SDS011;60035;52.122;5.406;2023-07-08T15:11:47;11.63;;;4.78;;
72156;SDS011;60035;52.122;5.406;2023-07-08T15:14:24;11.05;;;5.00;;
72156;SDS011;60035;52.122;5.406;2023-07-08T15:16:59;10.50;;;4.68;;
72156;SDS011;60035;52.122;5.406;2023-07-08T15:19:26;11.32;;;4.72;;
72156;SDS011;60035;52.122;5.406;2023-07-08T15:21:54;9.25;;;5.05;;
72156;SDS011;60035;52.122;5.406;2023-07-08T15:24:21;10.23;;;4.40;;
72156;SDS011;60035;52.122;5.406;2023-07-08T15:26:48;8.27;;;4.53;;
72156;SDS011;60035;52.122;5.406;2023-07-08T15:29:16;10.23;;;4.38;;
72156;SDS011;60035;52.122;5.406;2023-07-08T15:31:44;8.80;;;4.47;;
72156;SDS011;60035;52.122;5.406;2023-07-08T15:34:15;8.68;;;4.70;;
72156;SDS011;60035;52.122;5.406;2023-07-08T15:36:48;10.43;;;4.53;;
72156;SDS011;60035;52.122;5.406;2023-07-08T15:39:15;9.73;;;4.75;;
72156;SDS011;60035;52.122;5.406;2023-07-08T15:41:42;8.70;;;4.35;;
72156;SDS011;60035;52.122;5.406;2023-07-08T15:44:10;8.60;;;4.60;;
72156;SDS011;60035;52.122;5.406;2023-07-08T15:46:39;9.85;;;4.82;;
72156;SDS011;60035;52.122;5.406;2023-07-08T15:49:18;8.80;;;4.88;;
72156;SDS011;60035;52.122;5.406;2023-07-08T15:51:49;9.90;;;4.93;;
72156;SDS011;60035;52.122;5.406;2023-07-08T15:54:16;9.10;;;4.70;;
72156;SDS011;60035;52.122;5.406;2023-07-08T15:56:45;11.55;;;4.88;;
72156;SDS011;60035;52.122;5.406;2023-07-08T15:59:14;10.00;;;4.38;;
72156;SDS011;60035;52.122;5.406;2023-07-08T16:01:45;8.82;;;4.40;;
72156;SDS011;60035;52.122;5.406;2023-07-08T16:04:20;9.75;;;4.18;;
72156;SDS011;60035;52.122;5.406;2023-07-08T16:06:50;12.02;;;4.90;;
72156;SDS011;60035;52.122;5.406;2023-07-08T16:09:16;10.13;;;5.03;;
72156;SDS011;60035;52.122;5.406;2023-07-08T16:11:43;9.68;;;4.18;;
72156;SDS011;60035;52.122;5.406;2023-07-08T16:14:11;9.40;;;4.60;;
72156;SDS011;60035;52.122;5.406;2023-07-08T16:16:39;13.05;;;4.70;;